createdAt,value
2018-02-10T00:01:01.677Z,-1.30
2018-02-10T00:03:29.163Z,-1.30
2018-02-10T00:05:56.677Z,-1.30
2018-02-10T00:08:24.949Z,-1.30
2018-02-10T00:10:53.215Z,-1.40
2018-02-10T00:13:21.512Z,-1.40
2018-02-10T00:15:49.015Z,-1.40
2018-02-10T00:18:16.509Z,-1.40
2018-02-10T00:20:44.784Z,-1.40
2018-02-10T00:23:12.274Z,-1.40
2018-02-10T00:25:39.813Z,-1.40
2018-02-10T00:28:08.072Z,-1.40
2018-02-10T00:30:35.647Z,-1.40
2018-02-10T00:33:03.929Z,-1.40
2018-02-10T00:35:32.187Z,-1.50
2018-02-10T00:37:59.678Z,-1.50
2018-02-10T00:40:27.180Z,-1.50
2018-02-10T00:42:54.679Z,-1.50
2018-02-10T00:45:22.950Z,-1.50
2018-02-10T00:47:51.233Z,-1.50
2018-02-10T00:50:19.509Z,-1.50
2018-02-10T00:52:47.763Z,-1.50
2018-02-10T00:55:15.344Z,-1.50
2018-02-10T00:57:43.607Z,-1.50
2018-02-10T01:00:11.944Z,-1.50
2018-02-10T01:02:39.532Z,-1.50
2018-02-10T01:05:07.204Z,-1.60
2018-02-10T01:07:35.572Z,-1.50
2018-02-10T01:10:03.152Z,-1.60
2018-02-10T01:12:31.620Z,-1.60
2018-02-10T01:14:59.965Z,-1.60
2018-02-10T01:17:27.561Z,-1.60
2018-02-10T01:19:55.924Z,-1.60
2018-02-10T01:22:23.649Z,-1.60
2018-02-10T01:24:51.221Z,-1.60
2018-02-10T01:27:18.804Z,-1.70
2018-02-10T01:29:46.379Z,-1.70
2018-02-10T01:32:14.736Z,-1.70
2018-02-10T01:34:42.322Z,-1.70
2018-02-10T01:37:10.708Z,-1.70
2018-02-10T01:39:39.058Z,-1.70
2018-02-10T01:42:06.648Z,-1.70
2018-02-10T01:44:34.984Z,-1.70
2018-02-10T01:47:02.572Z,-1.80
2018-02-10T01:49:30.921Z,-1.80
2018-02-10T01:51:58.516Z,-1.80
2018-02-10T01:54:26.863Z,-1.80
2018-02-10T01:56:54.559Z,-1.80
2018-02-10T01:59:22.936Z,-1.80
2018-02-10T02:01:51.318Z,-1.90
2018-02-10T02:04:19.673Z,-1.90
2018-02-10T02:06:47.352Z,-1.90
2018-02-10T02:09:15.012Z,-1.90
2018-02-10T02:11:42.602Z,-2.00
2018-02-10T02:14:10.242Z,-2.00
2018-02-10T02:16:38.609Z,-2.10
2018-02-10T02:19:06.189Z,-2.00
2018-02-10T02:21:34.542Z,-2.10
2018-02-10T02:24:02.469Z,-2.10
2018-02-10T02:26:30.060Z,-2.10
2018-02-10T02:28:57.645Z,-2.10
2018-02-10T02:31:26.014Z,-2.20
2018-02-10T02:33:53.594Z,-2.20
2018-02-10T02:36:21.961Z,-2.20
2018-02-10T02:38:50.313Z,-2.30
2018-02-10T02:41:17.911Z,-2.30
2018-02-10T02:43:46.277Z,-2.30
2018-02-10T02:46:14.637Z,-2.40
2018-02-10T02:48:42.223Z,-2.40
2018-02-10T02:51:10.577Z,-2.40
2018-02-10T02:53:38.291Z,-2.50
2018-02-10T02:56:05.874Z,-2.50
2018-02-10T02:58:33.464Z,-2.50
2018-02-10T03:01:01.148Z,-2.50
2018-02-10T03:03:29.501Z,-2.60
2018-02-10T03:05:57.877Z,-2.60
2018-02-10T03:08:25.565Z,-2.60
2018-02-10T03:10:53.947Z,-2.70
2018-02-10T03:13:22.325Z,-2.70
2018-02-10T03:15:50.685Z,-2.70
2018-02-10T03:18:18.282Z,-2.70
2018-02-10T03:20:45.874Z,-2.70
2018-02-10T03:23:13.451Z,-2.80
2018-02-10T03:25:41.141Z,-2.80
2018-02-10T03:28:09.501Z,-2.90
2018-02-10T03:30:37.184Z,-2.90
2018-02-10T03:33:05.548Z,-3.00
2018-02-10T03:35:33.144Z,-3.00
2018-02-10T03:38:00.721Z,-3.00
2018-02-10T03:40:28.307Z,-3.00
2018-02-10T03:42:55.886Z,-3.00
2018-02-10T03:45:24.016Z,-3.00
2018-02-10T03:47:51.647Z,-3.00
2018-02-10T03:50:20.024Z,-3.10
2018-02-10T03:52:48.379Z,-3.20
2018-02-10T03:55:16.788Z,-3.20
2018-02-10T03:57:45.129Z,-3.20
2018-02-10T04:00:12.716Z,-3.20
2018-02-10T04:02:41.073Z,-3.20
2018-02-10T04:05:08.756Z,-3.20
2018-02-10T04:07:37.115Z,-3.20
2018-02-10T04:10:04.800Z,-3.30
2018-02-10T04:12:33.182Z,-3.40
2018-02-10T04:15:01.556Z,-3.40
2018-02-10T04:17:29.940Z,-3.40
2018-02-10T04:19:58.290Z,-3.50
2018-02-10T04:22:25.879Z,-3.50
2018-02-10T04:24:54.329Z,-3.50
2018-02-10T04:27:21.908Z,-3.50
2018-02-10T04:29:49.575Z,-3.50
2018-02-10T04:32:18.865Z,-3.60
2018-02-10T04:34:46.593Z,-3.60
2018-02-10T04:37:14.251Z,-3.60
2018-02-10T04:39:41.851Z,-3.50
2018-02-10T04:42:09.441Z,-3.60
2018-02-10T04:44:37.804Z,-3.60
2018-02-10T04:47:06.163Z,-3.70
2018-02-10T04:49:33.903Z,-3.70
2018-02-10T04:52:01.466Z,-3.70
2018-02-10T04:54:29.045Z,-3.70
2018-02-10T04:56:56.637Z,-3.80
2018-02-10T04:59:24.999Z,-3.80
2018-02-10T05:01:53.375Z,-3.80
2018-02-10T05:04:20.968Z,-3.90
2018-02-10T05:06:48.559Z,-3.90
2018-02-10T05:09:16.246Z,-3.90
2018-02-10T05:11:44.682Z,-3.90
2018-02-10T05:14:12.288Z,-3.90
2018-02-10T05:16:40.000Z,-3.90
2018-02-10T05:19:07.679Z,-3.80
2018-02-10T05:21:35.272Z,-3.80
2018-02-10T05:24:03.776Z,-3.80
2018-02-10T05:26:32.228Z,-3.70
2018-02-10T05:28:59.908Z,-3.70
2018-02-10T05:31:28.485Z,-3.60
2018-02-10T05:33:56.214Z,-3.60
2018-02-10T05:36:24.004Z,-3.60
2018-02-10T05:38:51.904Z,-3.50
2018-02-10T05:41:19.631Z,-3.50
2018-02-10T05:43:47.222Z,-3.50
2018-02-10T05:46:15.601Z,-3.50
2018-02-10T05:48:44.184Z,-3.60
2018-02-10T05:51:12.605Z,-3.40
2018-02-10T05:53:41.848Z,-3.40
2018-02-10T05:56:09.646Z,-3.50
2018-02-10T05:58:37.393Z,-3.40
2018-02-10T06:01:05.012Z,-3.40
2018-02-10T06:03:32.959Z,-3.30
2018-02-10T06:06:00.545Z,-3.30
2018-02-10T06:08:28.125Z,-3.30
2018-02-10T06:10:55.844Z,-3.30
2018-02-10T06:13:23.453Z,-3.30
2018-02-10T06:15:51.255Z,-3.20
2018-02-10T06:18:19.661Z,-3.20
2018-02-10T06:20:47.928Z,-3.20
2018-02-10T06:23:15.541Z,-3.20
2018-02-10T06:25:43.348Z,-3.10
2018-02-10T06:28:10.948Z,-3.10
2018-02-10T06:30:38.757Z,-3.10
2018-02-10T06:33:07.404Z,-3.10
2018-02-10T06:35:35.952Z,-3.10
2018-02-10T06:38:03.596Z,-3.10
2018-02-10T06:40:31.439Z,-3.00
2018-02-10T06:43:00.575Z,-3.00
2018-02-10T06:45:28.279Z,-3.00
2018-02-10T06:47:55.973Z,-3.00
2018-02-10T06:50:23.635Z,-2.90
2018-02-10T06:52:52.017Z,-2.90
2018-02-10T06:55:19.619Z,-2.90
2018-02-10T06:57:48.041Z,-2.90
2018-02-10T07:00:16.405Z,-2.90
2018-02-10T07:02:45.495Z,-2.90
2018-02-10T07:05:13.129Z,-2.80
2018-02-10T07:07:40.733Z,-2.80
2018-02-10T07:10:09.414Z,-2.80
2018-02-10T07:12:36.992Z,-1.50
2018-02-10T07:15:05.359Z,-2.10
2018-02-10T07:17:32.991Z,-2.10
2018-02-10T07:20:00.682Z,-2.30
2018-02-10T07:22:29.087Z,-2.40
2018-02-10T07:24:57.443Z,-2.50
2018-02-10T07:27:25.111Z,-2.50
2018-02-10T07:29:53.471Z,-2.50
2018-02-10T07:32:21.064Z,-2.50
2018-02-10T07:34:49.506Z,-2.40
2018-02-10T07:37:17.105Z,-2.50
2018-02-10T07:39:45.620Z,-2.40
2018-02-10T07:42:13.197Z,-2.40
2018-02-10T07:44:40.901Z,-2.30
2018-02-10T07:47:09.261Z,-2.30
2018-02-10T07:49:36.975Z,-2.30
2018-02-10T07:52:04.548Z,-2.20
2018-02-10T07:54:32.137Z,-2.20
2018-02-10T07:57:00.507Z,-2.20
2018-02-10T07:59:28.253Z,-2.20
2018-02-10T08:01:55.848Z,-2.10
2018-02-10T08:04:24.190Z,-2.10
2018-02-10T08:06:51.799Z,-2.10
2018-02-10T08:09:20.229Z,-2.00
2018-02-10T08:11:47.841Z,-2.00
2018-02-10T08:14:16.215Z,-2.00
2018-02-10T08:16:43.829Z,-2.00
2018-02-10T08:19:11.416Z,-1.90
2018-02-10T08:21:39.029Z,-1.90
2018-02-10T08:24:06.668Z,-1.90
2018-02-10T08:26:35.053Z,-1.80
2018-02-10T08:29:03.472Z,-1.80
2018-02-10T08:31:31.228Z,-1.80
2018-02-10T08:33:58.855Z,-1.70
2018-02-10T08:36:27.276Z,-1.70
2018-02-10T08:38:54.864Z,-1.70
2018-02-10T08:41:22.543Z,-1.60
2018-02-10T08:43:50.152Z,-1.60
2018-02-10T08:46:17.818Z,-1.50
2018-02-10T08:48:45.405Z,-1.50
2018-02-10T08:51:13.000Z,-1.40
2018-02-10T08:53:41.470Z,-1.40
2018-02-10T08:56:10.232Z,-1.30
2018-02-10T08:58:37.853Z,-1.30
2018-02-10T09:01:05.498Z,-1.20
2018-02-10T09:03:33.869Z,-1.10
2018-02-10T09:06:02.221Z,-1.00
2018-02-10T09:08:29.802Z,-1.00
2018-02-10T09:10:58.158Z,-0.90
2018-02-10T09:13:25.872Z,-1.00
2018-02-10T09:15:53.508Z,-0.90
2018-02-10T09:18:21.897Z,-0.90
2018-02-10T09:20:49.500Z,-0.80
2018-02-10T09:23:17.091Z,-0.80
2018-02-10T09:25:44.692Z,-0.80
2018-02-10T09:28:12.311Z,-0.80
2018-02-10T09:30:40.019Z,-0.70
2018-02-10T09:33:07.608Z,-0.60
2018-02-10T09:35:35.263Z,-0.60
2018-02-10T09:38:02.912Z,-0.60
2018-02-10T09:40:30.494Z,-0.60
2018-02-10T09:42:58.084Z,-0.50
2018-02-10T09:45:25.668Z,-0.50
2018-02-10T09:47:54.150Z,-0.40
2018-02-10T09:50:21.780Z,-0.40
2018-02-10T09:52:49.369Z,-0.30
2018-02-10T09:55:17.724Z,-0.20
2018-02-10T09:57:45.397Z,-0.20
2018-02-10T10:00:12.969Z,-0.10
2018-02-10T10:02:42.362Z,0.10
2018-02-10T10:05:09.943Z,0.10
2018-02-10T10:07:37.530Z,0.10
2018-02-10T10:10:05.107Z,0.30
2018-02-10T10:12:32.701Z,0.30
2018-02-10T10:15:01.085Z,0.40
2018-02-10T10:17:29.503Z,0.50
2018-02-10T10:19:57.120Z,0.50
2018-02-10T10:22:27.006Z,0.50
2018-02-10T10:24:54.593Z,0.60
2018-02-10T10:27:22.328Z,0.70
2018-02-10T10:29:50.041Z,0.80
2018-02-10T10:32:17.658Z,0.80
2018-02-10T10:34:45.274Z,0.90
2018-02-10T10:37:12.876Z,1.00
2018-02-10T10:39:40.485Z,1.00
2018-02-10T10:42:08.887Z,1.10
2018-02-10T10:44:36.526Z,1.10
2018-02-10T10:47:04.919Z,1.20
2018-02-10T10:49:32.544Z,1.20
2018-02-10T10:52:00.162Z,1.20
2018-02-10T10:54:27.788Z,1.30
2018-02-10T10:56:56.145Z,1.30
2018-02-10T10:59:23.761Z,1.30
2018-02-10T11:01:51.363Z,1.30
2018-02-10T11:04:18.957Z,1.40
2018-02-10T11:06:46.568Z,1.50
2018-02-10T11:09:14.276Z,1.40
2018-02-10T11:11:42.669Z,1.40
2018-02-10T11:14:10.296Z,1.40
2018-02-10T11:16:38.736Z,1.40
2018-02-10T11:19:06.359Z,1.40
2018-02-10T11:21:34.733Z,1.40
2018-02-10T11:24:03.180Z,1.50
2018-02-10T11:26:31.652Z,1.50
2018-02-10T11:29:00.273Z,1.50
2018-02-10T11:31:28.665Z,1.60
2018-02-10T11:33:56.329Z,1.60
2018-02-10T11:36:24.689Z,1.60
2018-02-10T11:38:53.784Z,1.60
2018-02-10T11:41:22.136Z,1.60
2018-02-10T11:43:49.728Z,1.60
2018-02-10T11:46:18.155Z,1.60
2018-02-10T11:48:45.728Z,1.60
2018-02-10T11:51:13.337Z,1.70
2018-02-10T11:53:41.681Z,1.70
2018-02-10T11:56:09.328Z,1.70
2018-02-10T11:58:36.905Z,1.70
2018-02-10T12:01:05.028Z,1.80
2018-02-10T12:03:32.661Z,1.80
2018-02-10T12:06:01.030Z,1.80
2018-02-10T12:08:29.572Z,1.80
2018-02-10T12:10:57.247Z,1.80
2018-02-10T12:13:24.857Z,1.80
2018-02-10T12:15:53.252Z,1.90
2018-02-10T12:18:20.967Z,1.90
2018-02-10T12:20:48.600Z,2.00
2018-02-10T12:23:16.218Z,1.90
2018-02-10T12:25:44.615Z,2.00
2018-02-10T12:28:12.253Z,1.90
2018-02-10T12:30:40.617Z,1.90
2018-02-10T12:33:08.243Z,1.90
2018-02-10T12:35:35.844Z,1.90
2018-02-10T12:38:03.441Z,1.90
2018-02-10T12:40:33.986Z,2.00
2018-02-10T12:43:01.600Z,2.00
2018-02-10T12:45:30.477Z,2.00
2018-02-10T12:51:02.355Z,2.00
2018-02-10T12:53:29.957Z,2.00
2018-02-10T12:55:57.537Z,2.00
2018-02-10T12:58:25.140Z,2.00
2018-02-10T13:00:52.732Z,2.00
2018-02-10T13:03:20.390Z,2.00
2018-02-10T13:05:47.997Z,2.00
2018-02-10T13:08:15.654Z,2.00
2018-02-10T13:10:43.272Z,2.00
2018-02-10T13:13:11.666Z,2.10
2018-02-10T13:15:39.240Z,2.10
2018-02-10T13:18:07.713Z,2.10
2018-02-10T13:20:36.561Z,2.20
2018-02-10T13:23:04.164Z,2.20
2018-02-10T13:25:31.754Z,2.30
2018-02-10T13:27:59.370Z,2.30
2018-02-10T13:30:28.700Z,2.20
2018-02-10T13:32:56.300Z,2.20
2018-02-10T13:35:24.767Z,2.10
2018-02-10T13:37:52.383Z,2.10
2018-02-10T13:40:19.977Z,2.20
2018-02-10T13:42:47.575Z,2.20
2018-02-10T13:45:15.945Z,2.20
2018-02-10T13:47:43.536Z,2.10
2018-02-10T13:50:11.903Z,2.20
2018-02-10T13:52:40.280Z,2.20
2018-02-10T13:55:08.656Z,2.20
2018-02-10T13:57:37.531Z,2.20
2018-02-10T14:00:05.131Z,2.20
2018-02-10T14:02:32.721Z,2.20
2018-02-10T14:05:00.332Z,2.20
2018-02-10T14:07:28.690Z,2.20
2018-02-10T14:09:56.305Z,2.20
2018-02-10T14:12:23.935Z,2.20
2018-02-10T14:14:52.317Z,2.20
2018-02-10T14:17:20.092Z,2.20
2018-02-10T14:19:47.866Z,2.20
2018-02-10T14:22:15.467Z,2.20
2018-02-10T14:24:43.077Z,2.20
2018-02-10T14:27:11.477Z,2.10
2018-02-10T14:29:39.105Z,2.10
2018-02-10T14:32:07.491Z,2.10
2018-02-10T14:34:35.877Z,2.10
2018-02-10T14:37:03.470Z,2.10
2018-02-10T14:39:31.062Z,2.10
2018-02-10T14:41:58.768Z,2.10
2018-02-10T14:44:26.512Z,2.10
2018-02-10T14:46:54.868Z,2.10
2018-02-10T14:49:22.562Z,2.10
2018-02-10T14:51:51.035Z,2.10
2018-02-10T14:54:19.376Z,2.10
2018-02-10T14:56:47.443Z,2.00
2018-02-10T14:59:15.208Z,2.00
2018-02-10T15:01:43.633Z,2.00
2018-02-10T15:04:12.017Z,2.00
2018-02-10T15:06:39.885Z,2.00
2018-02-10T15:09:08.404Z,2.10
2018-02-10T15:11:36.842Z,2.10
2018-02-10T15:14:04.556Z,2.10
2018-02-10T15:16:33.000Z,2.10
2018-02-10T15:19:00.594Z,2.10
2018-02-10T15:21:28.233Z,2.10
2018-02-10T15:23:55.866Z,2.00
2018-02-10T15:26:24.265Z,2.00
2018-02-10T15:28:51.951Z,2.00
2018-02-10T15:31:25.572Z,2.00
2018-02-10T15:34:05.025Z,2.00
2018-02-10T15:36:32.717Z,2.00
2018-02-10T15:39:01.075Z,2.00
2018-02-10T15:41:29.676Z,2.00
2018-02-10T15:43:58.962Z,2.00
2018-02-10T15:46:27.421Z,1.90
2018-02-10T15:48:55.325Z,1.90
2018-02-10T15:51:23.014Z,1.90
2018-02-10T15:53:51.855Z,1.90
2018-02-10T15:56:19.496Z,1.90
2018-02-10T15:58:47.662Z,1.90
2018-02-10T16:01:15.610Z,1.90
2018-02-10T16:03:43.428Z,1.90
2018-02-10T16:06:11.325Z,1.90
2018-02-10T16:08:38.941Z,1.90
2018-02-10T16:11:06.703Z,1.90
2018-02-10T16:13:35.113Z,1.90
2018-02-10T16:16:03.529Z,1.90
2018-02-10T16:18:31.204Z,1.90
2018-02-10T16:20:58.826Z,1.80
2018-02-10T16:23:27.164Z,1.80
2018-02-10T16:25:54.765Z,1.80
2018-02-10T16:28:23.144Z,1.80
2018-02-10T16:30:50.952Z,1.70
2018-02-10T16:33:18.798Z,1.80
2018-02-10T16:35:46.740Z,1.80
2018-02-10T16:38:14.535Z,1.80
2018-02-10T16:40:42.174Z,1.80
2018-02-10T16:43:10.581Z,1.80
2018-02-10T16:45:38.317Z,1.80
2018-02-10T16:48:05.942Z,1.80
2018-02-10T16:50:34.352Z,1.80
2018-02-10T16:53:02.737Z,1.80
2018-02-10T16:55:31.091Z,1.70
2018-02-10T16:57:58.928Z,1.70
2018-02-10T17:00:26.511Z,1.80
2018-02-10T17:02:54.257Z,1.80
2018-02-10T17:05:21.889Z,1.80
2018-02-10T17:07:49.637Z,1.70
2018-02-10T17:10:18.082Z,1.70
2018-02-10T17:12:45.688Z,1.70
2018-02-10T17:15:13.373Z,1.70
2018-02-10T17:17:40.991Z,1.70
2018-02-10T17:20:09.775Z,1.60
2018-02-10T17:22:38.137Z,1.60
2018-02-10T17:25:06.579Z,1.50
2018-02-10T17:27:34.244Z,1.50
2018-02-10T17:30:01.963Z,1.50
2018-02-10T17:32:30.390Z,1.50
2018-02-10T17:34:58.049Z,1.50
2018-02-10T17:37:25.681Z,1.40
2018-02-10T17:39:53.262Z,1.50
2018-02-10T17:42:20.858Z,1.50
2018-02-10T17:44:48.471Z,1.40
2018-02-10T17:47:16.213Z,1.40
2018-02-10T17:49:44.720Z,1.40
2018-02-10T17:52:12.306Z,1.40
2018-02-10T17:54:39.966Z,1.30
2018-02-10T17:57:07.572Z,1.30
2018-02-10T17:59:35.943Z,1.30
2018-02-10T18:02:03.568Z,1.30
2018-02-10T18:04:31.362Z,1.30
2018-02-10T18:06:59.791Z,1.30
2018-02-10T18:09:27.392Z,1.30
2018-02-10T18:11:55.029Z,1.30
2018-02-10T18:14:22.693Z,1.30
2018-02-10T18:16:50.515Z,1.30
2018-02-10T18:19:18.906Z,1.20
2018-02-10T18:21:46.491Z,1.20
2018-02-10T18:24:14.160Z,1.30
2018-02-10T18:26:41.756Z,1.30
2018-02-10T18:29:09.350Z,1.30
2018-02-10T18:31:37.354Z,1.20
2018-02-10T18:34:04.942Z,1.20
2018-02-10T18:36:32.534Z,1.20
2018-02-10T18:39:00.893Z,1.20
2018-02-10T18:41:28.497Z,1.20
2018-02-10T18:43:56.145Z,1.20
2018-02-10T18:46:23.754Z,1.20
2018-02-10T18:48:51.323Z,1.20
2018-02-10T18:51:19.000Z,1.20
2018-02-10T18:53:47.361Z,1.10
2018-02-10T18:56:14.944Z,1.20
2018-02-10T18:58:43.325Z,1.10
2018-02-10T19:01:10.953Z,1.10
2018-02-10T19:03:38.666Z,1.20
2018-02-10T19:06:07.033Z,1.10
2018-02-10T19:08:35.384Z,1.10
2018-02-10T19:11:03.002Z,1.10
2018-02-10T19:13:30.582Z,1.20
2018-02-10T19:15:58.193Z,1.10
2018-02-10T19:18:26.543Z,1.10
2018-02-10T19:20:54.282Z,1.10
2018-02-10T19:23:21.895Z,1.10
2018-02-10T19:25:50.266Z,1.10
2018-02-10T19:28:18.632Z,1.10
2018-02-10T19:30:46.258Z,1.10
2018-02-10T19:33:13.874Z,1.10
2018-02-10T19:35:42.254Z,1.30
2018-02-10T19:38:10.637Z,1.20
2018-02-10T19:40:39.125Z,1.20
2018-02-10T19:43:08.049Z,1.10
2018-02-10T19:45:35.666Z,1.10
2018-02-10T19:48:04.980Z,1.10
2018-02-10T19:50:33.340Z,1.10
2018-02-10T19:53:00.932Z,1.10
2018-02-10T19:55:28.587Z,1.10
2018-02-10T19:57:56.967Z,1.10
2018-02-10T20:00:24.585Z,1.10
2018-02-10T20:02:52.289Z,1.00
2018-02-10T20:05:19.921Z,1.00
2018-02-10T20:07:47.540Z,1.00
2018-02-10T20:10:15.437Z,1.00
2018-02-10T20:12:43.122Z,1.00
2018-02-10T20:15:11.467Z,0.90
2018-02-10T20:17:39.469Z,0.90
2018-02-10T20:20:07.883Z,0.90
2018-02-10T20:22:35.504Z,0.90
2018-02-10T20:25:03.093Z,0.90
2018-02-10T20:27:30.735Z,0.90
2018-02-10T20:29:59.113Z,0.90
2018-02-10T20:32:27.477Z,0.90
2018-02-10T20:34:55.145Z,0.80
2018-02-10T20:37:23.542Z,0.80
2018-02-10T20:39:51.952Z,0.80
2018-02-10T20:42:19.581Z,0.80
2018-02-10T20:44:49.077Z,0.80
2018-02-10T20:47:17.465Z,0.80
2018-02-10T20:49:45.897Z,0.80
2018-02-10T20:52:13.505Z,0.80
2018-02-10T20:54:41.895Z,0.90
2018-02-10T20:57:09.545Z,0.80
2018-02-10T20:59:37.911Z,0.80
2018-02-10T21:02:06.271Z,0.80
2018-02-10T21:04:33.866Z,0.80
2018-02-10T21:07:03.810Z,0.90
2018-02-10T21:09:31.556Z,0.80
2018-02-10T21:11:59.152Z,0.80
2018-02-10T21:14:26.758Z,0.80
2018-02-10T21:16:55.142Z,0.80
2018-02-10T21:19:23.876Z,0.80
2018-02-10T21:21:51.602Z,0.80
2018-02-10T21:24:19.957Z,0.80
2018-02-10T21:26:47.783Z,0.80
2018-02-10T21:29:15.549Z,0.80
2018-02-10T21:31:43.162Z,0.80
2018-02-10T21:34:11.540Z,0.80
2018-02-10T21:36:39.895Z,0.80
2018-02-10T21:39:07.477Z,0.80
2018-02-10T21:41:35.832Z,0.80
2018-02-10T21:44:03.406Z,0.80
2018-02-10T21:46:31.800Z,0.80
2018-02-10T21:49:00.210Z,0.70
2018-02-10T21:51:27.837Z,0.70
2018-02-10T21:53:56.189Z,1.20
2018-02-10T21:56:23.885Z,1.20
2018-02-10T21:58:52.232Z,1.40
2018-02-10T22:01:19.824Z,1.30
2018-02-10T22:03:48.176Z,1.50
2018-02-10T22:06:16.616Z,1.20
2018-02-10T22:08:44.239Z,1.20
2018-02-10T22:11:12.581Z,1.10
2018-02-10T22:13:41.022Z,1.10
2018-02-10T22:16:08.656Z,1.00
2018-02-10T22:18:36.983Z,1.00
2018-02-10T22:21:04.565Z,1.00
2018-02-10T22:23:32.251Z,1.00
2018-02-10T22:26:00.705Z,1.00
2018-02-10T22:28:28.355Z,0.90
2018-02-10T22:30:55.938Z,1.00
2018-02-10T22:33:23.526Z,1.00
2018-02-10T22:35:51.892Z,1.00
2018-02-10T22:38:20.325Z,1.00
2018-02-10T22:40:47.933Z,0.90
2018-02-10T22:43:16.284Z,1.00
2018-02-10T22:45:43.865Z,1.00
2018-02-10T22:48:12.972Z,0.90
2018-02-10T22:50:44.815Z,0.90
2018-02-10T22:53:13.196Z,0.90
2018-02-10T22:58:24.587Z,0.90
2018-02-10T23:00:52.400Z,0.90
2018-02-10T23:03:20.779Z,1.00
2018-02-10T23:05:49.286Z,1.00
2018-02-10T23:08:16.912Z,1.00
2018-02-10T23:10:45.457Z,1.00
2018-02-10T23:13:14.387Z,1.00
2018-02-10T23:15:42.466Z,1.00
2018-02-10T23:18:10.116Z,1.00
2018-02-10T23:20:39.566Z,1.00
2018-02-10T23:23:08.106Z,1.00
2018-02-10T23:25:55.973Z,1.00
2018-02-10T23:28:24.289Z,1.00
2018-02-10T23:30:52.352Z,1.00
2018-02-10T23:36:11.389Z,1.00
2018-02-10T23:38:41.147Z,1.00
2018-02-10T23:41:10.508Z,1.10
2018-02-10T23:43:39.132Z,1.10
2018-02-10T23:46:07.945Z,1.10
2018-02-10T23:48:37.264Z,1.10
2018-02-10T23:51:10.519Z,1.20
2018-02-10T23:53:38.219Z,1.20
2018-02-10T23:56:06.008Z,1.20
2018-02-10T23:58:33.837Z,1.20
